sensor_id;sensor_type;location;lat;lon;timestamp;P1;durP1;ratioP1;P2;durP2;ratioP2
7497;SDS011;3790;48.806;9.140;2022-07-29T00:01:56;0.20;;;0.20;;
7497;SDS011;3790;48.806;9.140;2022-07-29T00:06:56;0.25;;;0.20;;
7497;SDS011;3790;48.806;9.140;2022-07-29T00:11:58;0.30;;;0.30;;
7497;SDS011;3790;48.806;9.140;2022-07-29T00:17:00;0.43;;;0.30;;
7497;SDS011;3790;48.806;9.140;2022-07-29T00:22:01;0.25;;;0.22;;
7497;SDS011;3790;48.806;9.140;2022-07-29T00:27:01;0.70;;;0.35;;
7497;SDS011;3790;48.806;9.140;2022-07-29T00:32:02;0.30;;;0.30;;
7497;SDS011;3790;48.806;9.140;2022-07-29T00:37:03;0.52;;;0.17;;
7497;SDS011;3790;48.806;9.140;2022-07-29T00:42:04;0.57;;;0.43;;
7497;SDS011;3790;48.806;9.140;2022-07-29T00:47:05;0.43;;;0.30;;
7497;SDS011;3790;48.806;9.140;2022-07-29T00:52:06;0.10;;;0.10;;
7497;SDS011;3790;48.806;9.140;2022-07-29T00:57:08;0.38;;;0.28;;
7497;SDS011;3790;48.806;9.140;2022-07-29T01:02:08;0.50;;;0.40;;
7497;SDS011;3790;48.806;9.140;2022-07-29T01:07:09;0.25;;;0.25;;
7497;SDS011;3790;48.806;9.140;2022-07-29T01:12:10;0.30;;;0.30;;
7497;SDS011;3790;48.806;9.140;2022-07-29T01:17:21;0.13;;;0.13;;
7497;SDS011;3790;48.806;9.140;2022-07-29T01:28:11;0.20;;;0.20;;
7497;SDS011;3790;48.806;9.140;2022-07-29T01:33:35;0.30;;;0.20;;
7497;SDS011;3790;48.806;9.140;2022-07-29T01:38:54;0.20;;;0.20;;
7497;SDS011;3790;48.806;9.140;2022-07-29T01:43:59;0.25;;;0.13;;
7497;SDS011;3790;48.806;9.140;2022-07-29T01:49:24;0.10;;;0.10;;
7497;SDS011;3790;48.806;9.140;2022-07-29T01:54:34;0.22;;;0.22;;
7497;SDS011;3790;48.806;9.140;2022-07-29T01:59:38;0.32;;;0.28;;
7497;SDS011;3790;48.806;9.140;2022-07-29T02:04:40;0.20;;;0.20;;
7497;SDS011;3790;48.806;9.140;2022-07-29T02:09:42;0.20;;;0.20;;
7497;SDS011;3790;48.806;9.140;2022-07-29T02:14:47;0.30;;;0.30;;
7497;SDS011;3790;48.806;9.140;2022-07-29T02:19:50;0.13;;;0.13;;
7497;SDS011;3790;48.806;9.140;2022-07-29T02:24:53;0.32;;;0.25;;
7497;SDS011;3790;48.806;9.140;2022-07-29T02:29:56;0.13;;;0.13;;
7497;SDS011;3790;48.806;9.140;2022-07-29T02:35:00;0.25;;;0.15;;
7497;SDS011;3790;48.806;9.140;2022-07-29T02:40:02;0.10;;;0.10;;
7497;SDS011;3790;48.806;9.140;2022-07-29T02:45:04;0.20;;;0.20;;
7497;SDS011;3790;48.806;9.140;2022-07-29T02:50:07;0.38;;;0.32;;
7497;SDS011;3790;48.806;9.140;2022-07-29T02:55:32;0.20;;;0.20;;
7497;SDS011;3790;48.806;9.140;2022-07-29T03:00:37;0.20;;;0.20;;
7497;SDS011;3790;48.806;9.140;2022-07-29T03:05:40;0.28;;;0.22;;
7497;SDS011;3790;48.806;9.140;2022-07-29T03:10:42;0.15;;;0.15;;
7497;SDS011;3790;48.806;9.140;2022-07-29T03:15:44;0.20;;;0.20;;
7497;SDS011;3790;48.806;9.140;2022-07-29T03:20:45;0.10;;;0.10;;
7497;SDS011;3790;48.806;9.140;2022-07-29T03:25:45;0.45;;;0.22;;
7497;SDS011;3790;48.806;9.140;2022-07-29T03:30:46;0.20;;;0.20;;
7497;SDS011;3790;48.806;9.140;2022-07-29T03:35:47;0.20;;;0.20;;
7497;SDS011;3790;48.806;9.140;2022-07-29T03:40:54;0.52;;;0.20;;
7497;SDS011;3790;48.806;9.140;2022-07-29T03:45:58;0.20;;;0.20;;
7497;SDS011;3790;48.806;9.140;2022-07-29T03:51:01;0.15;;;0.15;;
7497;SDS011;3790;48.806;9.140;2022-07-29T03:56:02;0.32;;;0.20;;
7497;SDS011;3790;48.806;9.140;2022-07-29T04:01:04;0.17;;;0.17;;
7497;SDS011;3790;48.806;9.140;2022-07-29T04:06:06;0.20;;;0.20;;
7497;SDS011;3790;48.806;9.140;2022-07-29T04:11:07;0.50;;;0.30;;
7497;SDS011;3790;48.806;9.140;2022-07-29T04:16:07;0.50;;;0.38;;
7497;SDS011;3790;48.806;9.140;2022-07-29T04:21:08;0.20;;;0.20;;
7497;SDS011;3790;48.806;9.140;2022-07-29T04:26:09;0.20;;;0.20;;
7497;SDS011;3790;48.806;9.140;2022-07-29T04:31:10;0.10;;;0.10;;
7497;SDS011;3790;48.806;9.140;2022-07-29T04:36:12;0.73;;;0.30;;
7497;SDS011;3790;48.806;9.140;2022-07-29T04:41:12;0.20;;;0.17;;
7497;SDS011;3790;48.806;9.140;2022-07-29T04:46:13;0.13;;;0.13;;
7497;SDS011;3790;48.806;9.140;2022-07-29T04:51:14;0.10;;;0.10;;
7497;SDS011;3790;48.806;9.140;2022-07-29T04:56:15;0.10;;;0.10;;
7497;SDS011;3790;48.806;9.140;2022-07-29T05:01:16;0.20;;;0.20;;
7497;SDS011;3790;48.806;9.140;2022-07-29T05:06:16;0.10;;;0.10;;
7497;SDS011;3790;48.806;9.140;2022-07-29T05:11:17;0.10;;;0.10;;
7497;SDS011;3790;48.806;9.140;2022-07-29T05:16:17;0.20;;;0.20;;
7497;SDS011;3790;48.806;9.140;2022-07-29T05:21:18;0.75;;;0.13;;
7497;SDS011;3790;48.806;9.140;2022-07-29T05:26:18;0.10;;;0.10;;
7497;SDS011;3790;48.806;9.140;2022-07-29T05:31:19;0.20;;;0.20;;
7497;SDS011;3790;48.806;9.140;2022-07-29T05:36:19;0.20;;;0.20;;
7497;SDS011;3790;48.806;9.140;2022-07-29T05:41:20;0.38;;;0.35;;
7497;SDS011;3790;48.806;9.140;2022-07-29T05:46:21;0.30;;;0.30;;
7497;SDS011;3790;48.806;9.140;2022-07-29T05:51:21;0.10;;;0.10;;
7497;SDS011;3790;48.806;9.140;2022-07-29T05:56:22;0.20;;;0.20;;
7497;SDS011;3790;48.806;9.140;2022-07-29T06:01:23;0.52;;;0.40;;
7497;SDS011;3790;48.806;9.140;2022-07-29T06:06:23;0.17;;;0.17;;
7497;SDS011;3790;48.806;9.140;2022-07-29T06:11:33;0.10;;;0.10;;
7497;SDS011;3790;48.806;9.140;2022-07-29T06:16:33;0.10;;;0.10;;
7497;SDS011;3790;48.806;9.140;2022-07-29T06:21:34;0.20;;;0.20;;
7497;SDS011;3790;48.806;9.140;2022-07-29T06:26:35;0.32;;;0.20;;
7497;SDS011;3790;48.806;9.140;2022-07-29T06:31:36;0.10;;;0.10;;
7497;SDS011;3790;48.806;9.140;2022-07-29T06:36:37;0.13;;;0.13;;
7497;SDS011;3790;48.806;9.140;2022-07-29T06:41:38;0.10;;;0.10;;
7497;SDS011;3790;48.806;9.140;2022-07-29T06:46:38;0.10;;;0.10;;
7497;SDS011;3790;48.806;9.140;2022-07-29T06:51:39;0.10;;;0.10;;
7497;SDS011;3790;48.806;9.140;2022-07-29T06:56:40;0.10;;;0.10;;
7497;SDS011;3790;48.806;9.140;2022-07-29T07:01:42;0.10;;;0.10;;
7497;SDS011;3790;48.806;9.140;2022-07-29T07:06:43;0.55;;;0.30;;
7497;SDS011;3790;48.806;9.140;2022-07-29T07:11:43;0.10;;;0.10;;
7497;SDS011;3790;48.806;9.140;2022-07-29T07:16:44;0.20;;;0.20;;
7497;SDS011;3790;48.806;9.140;2022-07-29T07:21:44;0.10;;;0.10;;
7497;SDS011;3790;48.806;9.140;2022-07-29T07:26:45;0.20;;;0.20;;
7497;SDS011;3790;48.806;9.140;2022-07-29T07:31:46;0.20;;;0.20;;
7497;SDS011;3790;48.806;9.140;2022-07-29T07:36:46;0.20;;;0.20;;
7497;SDS011;3790;48.806;9.140;2022-07-29T07:41:47;0.15;;;0.15;;
7497;SDS011;3790;48.806;9.140;2022-07-29T07:46:47;0.15;;;0.15;;
7497;SDS011;3790;48.806;9.140;2022-07-29T07:51:48;0.25;;;0.20;;
7497;SDS011;3790;48.806;9.140;2022-07-29T07:56:48;0.82;;;0.30;;
7497;SDS011;3790;48.806;9.140;2022-07-29T08:01:49;0.10;;;0.10;;
7497;SDS011;3790;48.806;9.140;2022-07-29T08:06:50;0.25;;;0.20;;
7497;SDS011;3790;48.806;9.140;2022-07-29T08:11:50;0.20;;;0.20;;
7497;SDS011;3790;48.806;9.140;2022-07-29T08:16:51;0.20;;;0.20;;
7497;SDS011;3790;48.806;9.140;2022-07-29T08:21:52;0.10;;;0.10;;
7497;SDS011;3790;48.806;9.140;2022-07-29T08:26:53;0.20;;;0.20;;
7497;SDS011;3790;48.806;9.140;2022-07-29T08:31:53;0.17;;;0.17;;
7497;SDS011;3790;48.806;9.140;2022-07-29T08:36:54;0.30;;;0.30;;
7497;SDS011;3790;48.806;9.140;2022-07-29T08:41:55;0.20;;;0.20;;
7497;SDS011;3790;48.806;9.140;2022-07-29T08:46:56;0.10;;;0.10;;
7497;SDS011;3790;48.806;9.140;2022-07-29T08:51:57;0.20;;;0.20;;
7497;SDS011;3790;48.806;9.140;2022-07-29T08:56:59;0.15;;;0.15;;
7497;SDS011;3790;48.806;9.140;2022-07-29T09:02:01;0.10;;;0.10;;
7497;SDS011;3790;48.806;9.140;2022-07-29T09:07:03;0.10;;;0.10;;
7497;SDS011;3790;48.806;9.140;2022-07-29T09:12:05;0.45;;;0.20;;
7497;SDS011;3790;48.806;9.140;2022-07-29T09:17:08;0.20;;;0.20;;
7497;SDS011;3790;48.806;9.140;2022-07-29T09:22:08;0.17;;;0.17;;
7497;SDS011;3790;48.806;9.140;2022-07-29T09:32:20;0.20;;;0.20;;
7497;SDS011;3790;48.806;9.140;2022-07-29T09:37:30;0.10;;;0.10;;
7497;SDS011;3790;48.806;9.140;2022-07-29T09:42:30;0.15;;;0.15;;
7497;SDS011;3790;48.806;9.140;2022-07-29T09:47:40;0.20;;;0.20;;
7497;SDS011;3790;48.806;9.140;2022-07-29T09:52:47;0.30;;;0.20;;
7497;SDS011;3790;48.806;9.140;2022-07-29T09:57:49;0.10;;;0.10;;
7497;SDS011;3790;48.806;9.140;2022-07-29T10:02:49;0.30;;;0.30;;
7497;SDS011;3790;48.806;9.140;2022-07-29T10:07:54;0.10;;;0.10;;
7497;SDS011;3790;48.806;9.140;2022-07-29T10:12:59;0.55;;;0.30;;
7497;SDS011;3790;48.806;9.140;2022-07-29T10:18:02;0.20;;;0.20;;
7497;SDS011;3790;48.806;9.140;2022-07-29T10:23:03;0.20;;;0.20;;
7497;SDS011;3790;48.806;9.140;2022-07-29T10:28:05;0.47;;;0.25;;
7497;SDS011;3790;48.806;9.140;2022-07-29T10:33:15;0.20;;;0.20;;
7497;SDS011;3790;48.806;9.140;2022-07-29T10:38:30;0.20;;;0.20;;
7497;SDS011;3790;48.806;9.140;2022-07-29T10:43:42;0.40;;;0.28;;
7497;SDS011;3790;48.806;9.140;2022-07-29T10:59:36;0.20;;;0.20;;
7497;SDS011;3790;48.806;9.140;2022-07-29T11:09:43;0.50;;;0.13;;
7497;SDS011;3790;48.806;9.140;2022-07-29T11:19:51;0.10;;;0.10;;
7497;SDS011;3790;48.806;9.140;2022-07-29T11:25:30;0.10;;;0.10;;
7497;SDS011;3790;48.806;9.140;2022-07-29T11:30:50;0.30;;;0.30;;
7497;SDS011;3790;48.806;9.140;2022-07-29T11:51:43;0.70;;;0.28;;
7497;SDS011;3790;48.806;9.140;2022-07-29T11:56:54;0.30;;;0.20;;
7497;SDS011;3790;48.806;9.140;2022-07-29T12:01:55;0.20;;;0.20;;
7497;SDS011;3790;48.806;9.140;2022-07-29T12:06:56;0.30;;;0.30;;
7497;SDS011;3790;48.806;9.140;2022-07-29T12:11:57;0.30;;;0.20;;
7497;SDS011;3790;48.806;9.140;2022-07-29T12:16:59;0.20;;;0.20;;
7497;SDS011;3790;48.806;9.140;2022-07-29T12:22:00;0.17;;;0.10;;
7497;SDS011;3790;48.806;9.140;2022-07-29T12:27:01;0.30;;;0.25;;
7497;SDS011;3790;48.806;9.140;2022-07-29T12:32:02;0.32;;;0.20;;
7497;SDS011;3790;48.806;9.140;2022-07-29T12:37:03;0.22;;;0.22;;
7497;SDS011;3790;48.806;9.140;2022-07-29T12:42:11;0.20;;;0.20;;
7497;SDS011;3790;48.806;9.140;2022-07-29T12:47:13;0.28;;;0.20;;
7497;SDS011;3790;48.806;9.140;2022-07-29T12:52:26;0.30;;;0.20;;
7497;SDS011;3790;48.806;9.140;2022-07-29T12:57:28;0.20;;;0.20;;
7497;SDS011;3790;48.806;9.140;2022-07-29T13:02:29;0.20;;;0.20;;
7497;SDS011;3790;48.806;9.140;2022-07-29T13:07:31;0.30;;;0.30;;
7497;SDS011;3790;48.806;9.140;2022-07-29T13:12:35;0.95;;;0.50;;
7497;SDS011;3790;48.806;9.140;2022-07-29T13:17:39;1.30;;;0.77;;
7497;SDS011;3790;48.806;9.140;2022-07-29T13:22:42;0.98;;;0.80;;
7497;SDS011;3790;48.806;9.140;2022-07-29T13:27:42;0.45;;;0.30;;
7497;SDS011;3790;48.806;9.140;2022-07-29T13:32:45;1.42;;;0.60;;
7497;SDS011;3790;48.806;9.140;2022-07-29T13:37:46;0.50;;;0.40;;
7497;SDS011;3790;48.806;9.140;2022-07-29T13:42:47;0.90;;;0.70;;
7497;SDS011;3790;48.806;9.140;2022-07-29T13:47:48;0.95;;;0.50;;
7497;SDS011;3790;48.806;9.140;2022-07-29T13:52:48;4.28;;;1.65;;
7497;SDS011;3790;48.806;9.140;2022-07-29T13:57:50;0.82;;;0.65;;
7497;SDS011;3790;48.806;9.140;2022-07-29T14:02:51;3.42;;;1.85;;
7497;SDS011;3790;48.806;9.140;2022-07-29T14:07:52;5.63;;;2.55;;
7497;SDS011;3790;48.806;9.140;2022-07-29T14:12:52;4.53;;;2.53;;
7497;SDS011;3790;48.806;9.140;2022-07-29T14:17:53;2.95;;;1.88;;
7497;SDS011;3790;48.806;9.140;2022-07-29T14:22:53;2.13;;;1.40;;
7497;SDS011;3790;48.806;9.140;2022-07-29T14:27:54;6.00;;;2.47;;
7497;SDS011;3790;48.806;9.140;2022-07-29T14:32:54;2.42;;;1.67;;
7497;SDS011;3790;48.806;9.140;2022-07-29T14:37:55;3.80;;;2.20;;
7497;SDS011;3790;48.806;9.140;2022-07-29T14:42:55;2.40;;;1.42;;
7497;SDS011;3790;48.806;9.140;2022-07-29T14:47:56;3.45;;;1.75;;
7497;SDS011;3790;48.806;9.140;2022-07-29T14:52:56;3.13;;;1.88;;
7497;SDS011;3790;48.806;9.140;2022-07-29T14:57:57;4.85;;;1.90;;
7497;SDS011;3790;48.806;9.140;2022-07-29T15:02:59;4.07;;;2.03;;
7497;SDS011;3790;48.806;9.140;2022-07-29T15:08:00;1.45;;;0.98;;
7497;SDS011;3790;48.806;9.140;2022-07-29T15:13:00;2.78;;;2.22;;
7497;SDS011;3790;48.806;9.140;2022-07-29T15:18:01;5.43;;;1.70;;
7497;SDS011;3790;48.806;9.140;2022-07-29T15:23:02;4.10;;;2.63;;
7497;SDS011;3790;48.806;9.140;2022-07-29T15:28:03;4.07;;;2.47;;
7497;SDS011;3790;48.806;9.140;2022-07-29T15:33:07;10.27;;;3.20;;
7497;SDS011;3790;48.806;9.140;2022-07-29T15:38:11;4.60;;;2.10;;
7497;SDS011;3790;48.806;9.140;2022-07-29T15:43:11;3.45;;;2.22;;
7497;SDS011;3790;48.806;9.140;2022-07-29T15:48:12;5.50;;;1.95;;
7497;SDS011;3790;48.806;9.140;2022-07-29T15:53:13;3.00;;;1.63;;
7497;SDS011;3790;48.806;9.140;2022-07-29T15:58:13;2.47;;;1.20;;
7497;SDS011;3790;48.806;9.140;2022-07-29T16:03:14;3.95;;;2.20;;
7497;SDS011;3790;48.806;9.140;2022-07-29T16:08:15;1.27;;;0.82;;
7497;SDS011;3790;48.806;9.140;2022-07-29T16:13:15;2.33;;;1.13;;
7497;SDS011;3790;48.806;9.140;2022-07-29T16:18:16;2.95;;;1.00;;
7497;SDS011;3790;48.806;9.140;2022-07-29T16:23:16;1.52;;;0.70;;
7497;SDS011;3790;48.806;9.140;2022-07-29T16:28:17;1.40;;;0.90;;
7497;SDS011;3790;48.806;9.140;2022-07-29T16:33:17;1.55;;;0.95;;
7497;SDS011;3790;48.806;9.140;2022-07-29T16:38:18;3.58;;;0.90;;
7497;SDS011;3790;48.806;9.140;2022-07-29T16:43:18;1.80;;;1.00;;
7497;SDS011;3790;48.806;9.140;2022-07-29T16:48:19;0.98;;;0.75;;
7497;SDS011;3790;48.806;9.140;2022-07-29T16:53:19;2.05;;;1.15;;
7497;SDS011;3790;48.806;9.140;2022-07-29T16:58:20;0.68;;;0.40;;
7497;SDS011;3790;48.806;9.140;2022-07-29T17:03:21;1.23;;;0.68;;
7497;SDS011;3790;48.806;9.140;2022-07-29T17:08:21;1.75;;;1.02;;
7497;SDS011;3790;48.806;9.140;2022-07-29T17:13:22;0.93;;;0.80;;
7497;SDS011;3790;48.806;9.140;2022-07-29T17:18:23;0.55;;;0.45;;
7497;SDS011;3790;48.806;9.140;2022-07-29T17:23:23;1.45;;;0.82;;
7497;SDS011;3790;48.806;9.140;2022-07-29T17:28:24;1.98;;;1.23;;
7497;SDS011;3790;48.806;9.140;2022-07-29T17:33:24;1.38;;;0.85;;
7497;SDS011;3790;48.806;9.140;2022-07-29T17:38:25;1.42;;;0.80;;
7497;SDS011;3790;48.806;9.140;2022-07-29T17:43:25;0.90;;;0.70;;
7497;SDS011;3790;48.806;9.140;2022-07-29T17:48:26;0.52;;;0.50;;
7497;SDS011;3790;48.806;9.140;2022-07-29T17:53:26;0.85;;;0.50;;
7497;SDS011;3790;48.806;9.140;2022-07-29T17:58:27;2.58;;;0.90;;
7497;SDS011;3790;48.806;9.140;2022-07-29T18:03:27;1.58;;;0.93;;
7497;SDS011;3790;48.806;9.140;2022-07-29T18:08:28;1.85;;;1.10;;
7497;SDS011;3790;48.806;9.140;2022-07-29T18:13:28;2.25;;;1.15;;
7497;SDS011;3790;48.806;9.140;2022-07-29T18:18:29;1.27;;;0.70;;
7497;SDS011;3790;48.806;9.140;2022-07-29T18:23:29;1.38;;;0.70;;
7497;SDS011;3790;48.806;9.140;2022-07-29T18:28:30;2.45;;;0.60;;
7497;SDS011;3790;48.806;9.140;2022-07-29T18:33:31;1.38;;;0.75;;
7497;SDS011;3790;48.806;9.140;2022-07-29T18:38:32;0.85;;;0.63;;
7497;SDS011;3790;48.806;9.140;2022-07-29T18:43:33;1.75;;;0.70;;
7497;SDS011;3790;48.806;9.140;2022-07-29T18:48:35;1.08;;;0.75;;
7497;SDS011;3790;48.806;9.140;2022-07-29T18:53:35;1.10;;;0.82;;
7497;SDS011;3790;48.806;9.140;2022-07-29T18:58:36;1.27;;;0.70;;
7497;SDS011;3790;48.806;9.140;2022-07-29T19:03:37;1.35;;;0.65;;
7497;SDS011;3790;48.806;9.140;2022-07-29T19:08:38;0.52;;;0.50;;
7497;SDS011;3790;48.806;9.140;2022-07-29T19:13:38;0.52;;;0.52;;
7497;SDS011;3790;48.806;9.140;2022-07-29T19:18:39;2.45;;;1.10;;
7497;SDS011;3790;48.806;9.140;2022-07-29T19:23:40;1.35;;;0.80;;
7497;SDS011;3790;48.806;9.140;2022-07-29T19:28:41;0.88;;;0.60;;
7497;SDS011;3790;48.806;9.140;2022-07-29T19:33:41;0.63;;;0.50;;
7497;SDS011;3790;48.806;9.140;2022-07-29T19:38:42;1.10;;;0.82;;
7497;SDS011;3790;48.806;9.140;2022-07-29T19:43:42;1.35;;;0.82;;
7497;SDS011;3790;48.806;9.140;2022-07-29T19:48:43;0.50;;;0.50;;
7497;SDS011;3790;48.806;9.140;2022-07-29T19:53:44;1.25;;;0.68;;
7497;SDS011;3790;48.806;9.140;2022-07-29T19:58:44;0.65;;;0.55;;
7497;SDS011;3790;48.806;9.140;2022-07-29T20:03:45;1.20;;;0.90;;
7497;SDS011;3790;48.806;9.140;2022-07-29T20:08:45;0.98;;;0.68;;
7497;SDS011;3790;48.806;9.140;2022-07-29T20:13:46;0.73;;;0.52;;
7497;SDS011;3790;48.806;9.140;2022-07-29T20:18:46;1.17;;;0.80;;
7497;SDS011;3790;48.806;9.140;2022-07-29T20:23:47;0.35;;;0.32;;
7497;SDS011;3790;48.806;9.140;2022-07-29T20:28:47;0.85;;;0.60;;
7497;SDS011;3790;48.806;9.140;2022-07-29T20:33:48;1.38;;;0.70;;
7497;SDS011;3790;48.806;9.140;2022-07-29T20:38:49;1.45;;;0.82;;
7497;SDS011;3790;48.806;9.140;2022-07-29T20:43:49;1.20;;;0.50;;
7497;SDS011;3790;48.806;9.140;2022-07-29T20:48:50;0.88;;;0.73;;
7497;SDS011;3790;48.806;9.140;2022-07-29T20:53:50;1.35;;;0.70;;
7497;SDS011;3790;48.806;9.140;2022-07-29T20:58:51;1.58;;;0.68;;
7497;SDS011;3790;48.806;9.140;2022-07-29T21:03:51;1.05;;;0.63;;
7497;SDS011;3790;48.806;9.140;2022-07-29T21:08:52;0.85;;;0.50;;
7497;SDS011;3790;48.806;9.140;2022-07-29T21:13:54;0.45;;;0.40;;
7497;SDS011;3790;48.806;9.140;2022-07-29T21:18:55;0.40;;;0.40;;
7497;SDS011;3790;48.806;9.140;2022-07-29T21:23:55;0.52;;;0.43;;
7497;SDS011;3790;48.806;9.140;2022-07-29T21:28:56;0.38;;;0.38;;
7497;SDS011;3790;48.806;9.140;2022-07-29T21:33:56;2.00;;;0.93;;
7497;SDS011;3790;48.806;9.140;2022-07-29T21:38:57;2.08;;;0.50;;
7497;SDS011;3790;48.806;9.140;2022-07-29T21:43:58;0.63;;;0.50;;
7497;SDS011;3790;48.806;9.140;2022-07-29T21:48:59;1.20;;;0.60;;
7497;SDS011;3790;48.806;9.140;2022-07-29T21:53:59;1.27;;;0.82;;
7497;SDS011;3790;48.806;9.140;2022-07-29T21:59:00;1.00;;;0.60;;
7497;SDS011;3790;48.806;9.140;2022-07-29T22:04:00;1.38;;;0.60;;
7497;SDS011;3790;48.806;9.140;2022-07-29T22:09:01;0.82;;;0.70;;
7497;SDS011;3790;48.806;9.140;2022-07-29T22:14:02;0.52;;;0.50;;
7497;SDS011;3790;48.806;9.140;2022-07-29T22:19:04;0.98;;;0.55;;
7497;SDS011;3790;48.806;9.140;2022-07-29T22:24:04;0.50;;;0.43;;
7497;SDS011;3790;48.806;9.140;2022-07-29T22:29:05;0.73;;;0.50;;
7497;SDS011;3790;48.806;9.140;2022-07-29T22:34:07;0.30;;;0.30;;
7497;SDS011;3790;48.806;9.140;2022-07-29T22:39:11;1.48;;;0.75;;
7497;SDS011;3790;48.806;9.140;2022-07-29T22:44:12;0.93;;;0.70;;
7497;SDS011;3790;48.806;9.140;2022-07-29T22:49:12;0.80;;;0.50;;
7497;SDS011;3790;48.806;9.140;2022-07-29T22:54:13;0.30;;;0.28;;
7497;SDS011;3790;48.806;9.140;2022-07-29T22:59:13;1.25;;;0.90;;
7497;SDS011;3790;48.806;9.140;2022-07-29T23:04:14;0.73;;;0.70;;
7497;SDS011;3790;48.806;9.140;2022-07-29T23:09:14;0.17;;;0.17;;
7497;SDS011;3790;48.806;9.140;2022-07-29T23:14:15;0.85;;;0.63;;
7497;SDS011;3790;48.806;9.140;2022-07-29T23:19:15;0.43;;;0.32;;
7497;SDS011;3790;48.806;9.140;2022-07-29T23:24:17;1.05;;;0.75;;
7497;SDS011;3790;48.806;9.140;2022-07-29T23:29:18;0.45;;;0.40;;
7497;SDS011;3790;48.806;9.140;2022-07-29T23:34:18;0.75;;;0.63;;
7497;SDS011;3790;48.806;9.140;2022-07-29T23:39:19;0.93;;;0.50;;
7497;SDS011;3790;48.806;9.140;2022-07-29T23:44:20;0.73;;;0.50;;
7497;SDS011;3790;48.806;9.140;2022-07-29T23:49:20;0.40;;;0.40;;
7497;SDS011;3790;48.806;9.140;2022-07-29T23:54:21;0.93;;;0.60;;
7497;SDS011;3790;48.806;9.140;2022-07-29T23:59:21;0.40;;;0.40;;
